createdAt,value
2023-08-27T00:00:51.009Z,99668.05
2023-08-27T00:06:14.195Z,99663.63
2023-08-27T00:11:17.197Z,99647.84
2023-08-27T00:16:20.359Z,99676.80
2023-08-27T00:21:23.630Z,99680.41
2023-08-27T00:26:26.632Z,99682.05
2023-08-27T00:31:32.033Z,99678.21
2023-08-27T00:36:36.632Z,99662.27
2023-08-27T00:41:39.645Z,99645.11
2023-08-27T00:46:42.648Z,99641.03
2023-08-27T00:51:48.033Z,99646.37
2023-08-27T00:56:51.942Z,99655.05
2023-08-27T01:01:54.944Z,99643.59
2023-08-27T01:07:08.085Z,99638.96
2023-08-27T01:12:21.236Z,99624.30
2023-08-27T01:17:24.980Z,99628.02
2023-08-27T01:22:29.807Z,99605.13
2023-08-27T01:27:41.109Z,99603.30
2023-08-27T01:32:51.123Z,99603.98
2023-08-27T01:37:54.901Z,99618.55
2023-08-27T01:42:58.227Z,99622.71
2023-08-27T01:48:01.778Z,99622.34
2023-08-27T01:53:04.844Z,99618.29
2023-08-27T01:58:07.954Z,99627.95
2023-08-27T02:03:10.992Z,99630.14
2023-08-27T02:08:14.171Z,99641.23
2023-08-27T02:13:18.039Z,99642.17
2023-08-27T02:18:21.107Z,99648.91
2023-08-27T02:23:24.738Z,99649.64
2023-08-27T02:28:28.758Z,99656.63
2023-08-27T02:33:31.864Z,99671.45
2023-08-27T02:38:35.796Z,99684.78
2023-08-27T02:43:38.806Z,99678.76
2023-08-27T02:48:41.809Z,99682.73
2023-08-27T02:53:44.927Z,99691.89
2023-08-27T02:58:51.640Z,99670.92
2023-08-27T03:03:54.719Z,99668.00
2023-08-27T03:08:57.831Z,99666.75
2023-08-27T03:14:00.939Z,99663.95
2023-08-27T03:19:04.151Z,99667.95
2023-08-27T03:24:07.786Z,99660.45
2023-08-27T03:29:10.912Z,99648.70
2023-08-27T03:34:14.094Z,99651.36
2023-08-27T03:39:17.107Z,99642.20
2023-08-27T03:44:20.106Z,99653.17
2023-08-27T03:49:23.128Z,99656.44
2023-08-27T03:54:27.961Z,99647.70
2023-08-27T03:59:31.070Z,99660.10
2023-08-27T04:04:34.391Z,99668.88
2023-08-27T04:09:37.502Z,99672.64
2023-08-27T04:14:40.511Z,99677.09
2023-08-27T04:24:47.552Z,99686.73
2023-08-27T04:29:50.759Z,99701.59
2023-08-27T04:34:53.964Z,99704.86
2023-08-27T04:39:56.974Z,99719.53
2023-08-27T04:44:59.976Z,99722.39
2023-08-27T04:50:03.087Z,99708.94
2023-08-27T04:55:07.594Z,99693.71
2023-08-27T05:00:18.420Z,99695.16
2023-08-27T05:05:21.431Z,99696.58
2023-08-27T05:10:24.531Z,99697.27
2023-08-27T05:15:27.718Z,99698.98
2023-08-27T05:20:30.962Z,99696.95
2023-08-27T05:25:34.274Z,99700.13
2023-08-27T05:30:37.693Z,99707.09
2023-08-27T05:35:41.421Z,99698.37
2023-08-27T05:40:44.513Z,99695.85
2023-08-27T05:45:47.434Z,99697.74
2023-08-27T05:50:50.535Z,99701.40
2023-08-27T05:55:53.477Z,99699.81
2023-08-27T06:00:57.859Z,99702.17
2023-08-27T06:06:01.092Z,99702.91
2023-08-27T06:11:05.636Z,99704.88
2023-08-27T06:16:08.951Z,99697.90
2023-08-27T06:21:12.194Z,99699.40
2023-08-27T06:26:15.369Z,99687.98
2023-08-27T06:31:18.391Z,99699.14
2023-08-27T06:36:21.507Z,99703.27
2023-08-27T06:41:24.495Z,99688.59
2023-08-27T06:46:27.628Z,99679.65
2023-08-27T06:51:30.606Z,99681.77
2023-08-27T06:56:33.612Z,99676.69
2023-08-27T07:01:36.622Z,99671.77
2023-08-27T07:06:39.737Z,99683.20
2023-08-27T07:11:43.119Z,99689.10
2023-08-27T07:16:46.259Z,99694.63
2023-08-27T07:21:49.510Z,99691.98
2023-08-27T07:26:53.098Z,99694.94
2023-08-27T07:31:56.301Z,99698.52
2023-08-27T07:36:59.613Z,99704.50
2023-08-27T07:42:04.066Z,99709.92
2023-08-27T07:47:07.267Z,99709.57
2023-08-27T07:52:10.381Z,99698.70
2023-08-27T07:57:14.151Z,99693.53
2023-08-27T08:02:17.216Z,99680.10
2023-08-27T08:07:20.630Z,99680.28
2023-08-27T08:12:23.732Z,99676.83
2023-08-27T08:17:39.639Z,99665.49
2023-08-27T08:22:47.148Z,99671.19
2023-08-27T08:27:50.098Z,99666.36
2023-08-27T08:32:53.808Z,99653.98
2023-08-27T08:37:56.894Z,99661.56
2023-08-27T08:43:02.952Z,99663.94
2023-08-27T08:48:07.542Z,99670.22
2023-08-27T08:53:15.891Z,99674.02
2023-08-27T08:58:21.405Z,99680.42
2023-08-27T09:03:26.503Z,99675.57
2023-08-27T09:08:32.313Z,99671.67
2023-08-27T09:13:35.558Z,99662.61
2023-08-27T09:18:39.189Z,99651.56
2023-08-27T09:23:42.293Z,99659.73
2023-08-27T09:28:45.780Z,99659.77
2023-08-27T09:33:48.817Z,99660.52
2023-08-27T09:38:51.918Z,99647.44
2023-08-27T09:43:55.530Z,99652.15
2023-08-27T09:49:00.592Z,99646.73
2023-08-27T09:54:18.653Z,99642.73
2023-08-27T09:59:22.580Z,99642.08
2023-08-27T10:04:25.687Z,99649.64
2023-08-27T10:09:35.710Z,99658.08
2023-08-27T10:14:41.650Z,99659.62
2023-08-27T10:19:45.160Z,99664.98
2023-08-27T10:24:50.415Z,99665.93
2023-08-27T10:29:55.061Z,99656.70
2023-08-27T10:34:58.267Z,99644.71
2023-08-27T10:40:02.434Z,99655.27
2023-08-27T10:45:16.586Z,99654.45
2023-08-27T10:50:22.904Z,99643.98
2023-08-27T10:55:39.174Z,99648.10
2023-08-27T11:00:58.422Z,99648.73
2023-08-27T11:06:16.761Z,99647.82
2023-08-27T11:11:26.548Z,99643.88
2023-08-27T11:16:30.969Z,99637.00
2023-08-27T11:21:34.351Z,99625.02
2023-08-27T11:26:38.480Z,99622.70
2023-08-27T11:31:42.924Z,99618.69
2023-08-27T11:36:50.432Z,99614.25
2023-08-27T11:41:53.950Z,99608.32
2023-08-27T11:47:06.586Z,99604.71
2023-08-27T11:52:10.232Z,99598.69
2023-08-27T11:57:17.523Z,99589.04
2023-08-27T12:02:21.279Z,99606.92
2023-08-27T12:07:31.224Z,99625.86
2023-08-27T12:12:38.520Z,99619.69
2023-08-27T12:17:41.968Z,99605.04
2023-08-27T12:22:47.308Z,99592.28
2023-08-27T12:27:50.811Z,99577.39
2023-08-27T12:32:57.007Z,99589.14
2023-08-27T12:38:00.785Z,99598.33
2023-08-27T12:43:04.747Z,99598.09
2023-08-27T12:48:08.676Z,99598.92
2023-08-27T12:53:12.194Z,99595.37
2023-08-27T12:58:15.628Z,99578.98
2023-08-27T13:03:19.093Z,99551.38
2023-08-27T13:08:22.649Z,99541.50
2023-08-27T13:13:26.529Z,99547.10
2023-08-27T13:18:30.506Z,99553.56
2023-08-27T13:23:33.920Z,99534.73
2023-08-27T13:28:37.969Z,99521.71
2023-08-27T13:33:41.577Z,99520.61
2023-08-27T13:38:45.449Z,99519.86
2023-08-27T13:43:48.962Z,99519.25
2023-08-27T13:48:52.439Z,99504.01
2023-08-27T13:53:55.962Z,99500.12
2023-08-27T13:58:59.378Z,99511.88
2023-08-27T14:04:02.798Z,99503.21
2023-08-27T14:09:06.619Z,99510.36
2023-08-27T14:14:10.237Z,99501.65
2023-08-27T14:19:13.859Z,99504.40
2023-08-27T14:24:17.187Z,99497.67
2023-08-27T14:29:20.689Z,99508.55
2023-08-27T14:34:24.718Z,99516.14
2023-08-27T14:39:29.675Z,99505.42
2023-08-27T14:44:34.829Z,99497.69
2023-08-27T14:49:38.553Z,99476.28
2023-08-27T14:54:42.072Z,99477.05
2023-08-27T14:59:48.379Z,99477.84
2023-08-27T15:04:52.024Z,99458.17
2023-08-27T15:09:55.601Z,99450.29
2023-08-27T15:14:59.038Z,99439.38
2023-08-27T15:20:02.436Z,99429.20
2023-08-27T15:25:06.238Z,99437.44
2023-08-27T15:30:11.160Z,99454.13
2023-08-27T15:35:17.423Z,99459.39
2023-08-27T15:40:21.013Z,99449.43
2023-08-27T15:45:24.533Z,99439.17
2023-08-27T15:50:28.057Z,99431.23
2023-08-27T15:55:31.477Z,99431.78
2023-08-27T16:00:43.612Z,99413.70
2023-08-27T16:05:47.413Z,99403.41
2023-08-27T16:10:51.354Z,99398.63
2023-08-27T16:15:55.184Z,99381.83
2023-08-27T16:20:58.682Z,99365.96
2023-08-27T16:26:02.113Z,99367.89
2023-08-27T16:31:06.498Z,99366.85
2023-08-27T16:36:09.961Z,99374.66
2023-08-27T16:41:13.683Z,99378.54
2023-08-27T16:46:17.766Z,99359.70
2023-08-27T16:51:21.467Z,99367.03
2023-08-27T16:56:25.158Z,99367.54
2023-08-27T17:01:31.356Z,99371.54
2023-08-27T17:06:35.582Z,99367.58
2023-08-27T17:11:40.021Z,99370.88
2023-08-27T17:16:46.422Z,99371.58
2023-08-27T17:21:50.125Z,99371.77
2023-08-27T17:26:53.750Z,99374.16
2023-08-27T17:31:57.535Z,99363.55
2023-08-27T17:37:01.838Z,99356.13
2023-08-27T17:42:08.103Z,99352.98
2023-08-27T17:47:13.170Z,99345.52
2023-08-27T17:52:16.569Z,99345.87
2023-08-27T17:57:20.086Z,99335.52
2023-08-27T18:02:23.829Z,99336.48
2023-08-27T18:07:27.430Z,99337.08
2023-08-27T18:12:30.840Z,99331.23
2023-08-27T18:17:37.387Z,99337.52
2023-08-27T18:22:41.374Z,99353.08
2023-08-27T18:27:46.118Z,99354.63
2023-08-27T18:32:49.648Z,99342.90
2023-08-27T18:37:53.260Z,99333.70
2023-08-27T18:42:56.992Z,99326.15
2023-08-27T18:48:00.972Z,99323.84
2023-08-27T18:53:04.841Z,99316.02
2023-08-27T18:58:08.982Z,99307.63
2023-08-27T19:03:13.039Z,99294.43
2023-08-27T19:08:18.281Z,99288.04
2023-08-27T19:13:22.178Z,99279.11
2023-08-27T19:18:26.180Z,99278.59
2023-08-27T19:23:31.165Z,99252.14
2023-08-27T19:28:35.110Z,99232.45
2023-08-27T19:33:38.614Z,99236.84
2023-08-27T19:38:43.275Z,99226.86
2023-08-27T19:43:47.520Z,99218.81
2023-08-27T19:48:51.220Z,99195.09
2023-08-27T19:53:57.762Z,99204.02
2023-08-27T19:59:01.530Z,99210.26
2023-08-27T20:04:05.885Z,99211.06
2023-08-27T20:09:09.395Z,99204.27
2023-08-27T20:14:13.319Z,99196.13
2023-08-27T20:19:17.166Z,99197.71
2023-08-27T20:24:21.286Z,99186.27
2023-08-27T20:29:24.799Z,99165.79
2023-08-27T20:34:30.982Z,99139.48
2023-08-27T20:39:35.315Z,99141.77
2023-08-27T20:44:39.443Z,99144.18
2023-08-27T20:49:43.383Z,99123.33
2023-08-27T20:54:47.920Z,99107.45
2023-08-27T20:59:54.611Z,99067.39
2023-08-27T21:04:58.448Z,99054.73
2023-08-27T21:10:01.968Z,99060.42
2023-08-27T21:15:06.198Z,99064.24
2023-08-27T21:20:09.994Z,99054.75
2023-08-27T21:25:13.344Z,99041.79
2023-08-27T21:30:17.152Z,99035.92
2023-08-27T21:35:20.578Z,99036.45
2023-08-27T21:40:24.399Z,99027.11
2023-08-27T21:45:27.953Z,99018.94
2023-08-27T21:50:31.437Z,99008.56
2023-08-27T21:55:35.154Z,99001.41
2023-08-27T22:00:39.543Z,98991.50
2023-08-27T22:05:43.024Z,98992.13
2023-08-27T22:10:46.248Z,98990.44
2023-08-27T22:15:53.033Z,98993.34
2023-08-27T22:20:58.080Z,98993.70
2023-08-27T22:26:02.321Z,98991.80
2023-08-27T22:31:06.217Z,98988.63
2023-08-27T22:36:09.770Z,98975.70
2023-08-27T22:41:12.868Z,98987.72
2023-08-27T22:46:16.119Z,98975.98
2023-08-27T22:51:19.321Z,98983.37
2023-08-27T22:56:22.507Z,98983.48
2023-08-27T23:01:25.610Z,98960.89
2023-08-27T23:06:29.847Z,98958.05
2023-08-27T23:11:33.067Z,99002.66
2023-08-27T23:16:37.111Z,99024.13
2023-08-27T23:21:40.203Z,99022.05
2023-08-27T23:26:43.209Z,99019.33
2023-08-27T23:31:46.214Z,99006.76
2023-08-27T23:36:49.434Z,99002.87
2023-08-27T23:41:52.534Z,99003.99
2023-08-27T23:46:55.853Z,99025.35
2023-08-27T23:51:58.851Z,99056.70
2023-08-27T23:57:01.886Z,99071.54
